Beemer, Nebraska
Current Conditions -  °F | °C
As of 7:55 PM on Monday 24 Nov 2014 (Local Time) from KLCG Reporting Station
Clear Clear  
Wind Chill: 13°   Ceiling: Unl
Heat Index: 24°   Visibility: 10mi
Dew Point:   Wind: 13mph
Humidity: 48%   Direction: 320°NW
Pressure: 30.02"   Gusts: NA
Location:  41.93°N, 96.81°W
Report Text: KLCG 250155Z AUTO 32011KT 10SM CLR M04/M14 A3002 RMK AO2 T10421139
Loading
Personal Weather Stations






























Interactive Weather Map New forecast layout! Learn more

10-Day Weather Forecast

Advertisements
Track Severe Weather on mobile